sensor_id;sensor_type;location;lat;lon;timestamp;temperature;humidity
32877;DHT22;19226;51.600;8.034;2024-02-23T00:00:06;8.60;99.90
32877;DHT22;19226;51.600;8.034;2024-02-23T00:02:51;8.60;99.90
32877;DHT22;19226;51.600;8.034;2024-02-23T00:05:38;8.50;99.90
32877;DHT22;19226;51.600;8.034;2024-02-23T00:08:22;8.50;99.90
32877;DHT22;19226;51.600;8.034;2024-02-23T00:11:07;8.40;99.90
32877;DHT22;19226;51.600;8.034;2024-02-23T00:13:52;8.40;99.90
32877;DHT22;19226;51.600;8.034;2024-02-23T00:16:39;8.40;99.90
32877;DHT22;19226;51.600;8.034;2024-02-23T00:19:24;8.30;99.90
32877;DHT22;19226;51.600;8.034;2024-02-23T00:22:09;8.20;99.90
32877;DHT22;19226;51.600;8.034;2024-02-23T00:24:54;8.20;99.90
32877;DHT22;19226;51.600;8.034;2024-02-23T00:27:39;8.20;99.90
32877;DHT22;19226;51.600;8.034;2024-02-23T00:30:25;8.10;99.90
32877;DHT22;19226;51.600;8.034;2024-02-23T00:33:11;8.10;99.90
32877;DHT22;19226;51.600;8.034;2024-02-23T00:35:56;8.10;99.90
32877;DHT22;19226;51.600;8.034;2024-02-23T00:38:40;8.00;99.90
32877;DHT22;19226;51.600;8.034;2024-02-23T00:41:24;8.00;99.90
32877;DHT22;19226;51.600;8.034;2024-02-23T00:44:09;7.90;99.90
32877;DHT22;19226;51.600;8.034;2024-02-23T00:46:53;7.90;99.90
32877;DHT22;19226;51.600;8.034;2024-02-23T00:49:38;7.90;99.90
32877;DHT22;19226;51.600;8.034;2024-02-23T00:52:23;7.80;99.90
32877;DHT22;19226;51.600;8.034;2024-02-23T00:55:08;7.70;99.90
32877;DHT22;19226;51.600;8.034;2024-02-23T00:57:52;7.60;99.90
32877;DHT22;19226;51.600;8.034;2024-02-23T01:00:37;7.50;99.90
32877;DHT22;19226;51.600;8.034;2024-02-23T01:03:21;7.50;99.90
32877;DHT22;19226;51.600;8.034;2024-02-23T01:06:06;7.40;99.90
32877;DHT22;19226;51.600;8.034;2024-02-23T01:08:51;7.40;99.90
32877;DHT22;19226;51.600;8.034;2024-02-23T01:11:35;7.40;99.90
32877;DHT22;19226;51.600;8.034;2024-02-23T01:14:20;7.40;99.90
32877;DHT22;19226;51.600;8.034;2024-02-23T01:17:04;7.40;99.90
32877;DHT22;19226;51.600;8.034;2024-02-23T01:19:49;7.40;99.90
32877;DHT22;19226;51.600;8.034;2024-02-23T01:22:34;7.30;99.90
32877;DHT22;19226;51.600;8.034;2024-02-23T01:25:19;7.30;99.90
32877;DHT22;19226;51.600;8.034;2024-02-23T01:28:04;7.30;99.90
32877;DHT22;19226;51.600;8.034;2024-02-23T01:30:48;7.10;99.90
32877;DHT22;19226;51.600;8.034;2024-02-23T01:33:33;7.00;99.90
32877;DHT22;19226;51.600;8.034;2024-02-23T01:36:18;7.00;99.90
32877;DHT22;19226;51.600;8.034;2024-02-23T01:39:02;7.00;99.90
32877;DHT22;19226;51.600;8.034;2024-02-23T01:41:48;7.00;99.90
32877;DHT22;19226;51.600;8.034;2024-02-23T01:44:33;6.90;99.90
32877;DHT22;19226;51.600;8.034;2024-02-23T01:47:17;6.90;99.90
32877;DHT22;19226;51.600;8.034;2024-02-23T01:50:02;6.90;99.90
32877;DHT22;19226;51.600;8.034;2024-02-23T01:52:48;6.90;99.90
32877;DHT22;19226;51.600;8.034;2024-02-23T01:55:33;6.90;99.90
32877;DHT22;19226;51.600;8.034;2024-02-23T01:58:18;6.80;99.90
32877;DHT22;19226;51.600;8.034;2024-02-23T02:01:03;6.80;99.90
32877;DHT22;19226;51.600;8.034;2024-02-23T02:03:47;6.90;99.90
32877;DHT22;19226;51.600;8.034;2024-02-23T02:06:32;6.80;99.90
32877;DHT22;19226;51.600;8.034;2024-02-23T02:09:16;6.80;99.90
32877;DHT22;19226;51.600;8.034;2024-02-23T02:12:01;6.80;99.90
32877;DHT22;19226;51.600;8.034;2024-02-23T02:14:46;6.90;99.90
32877;DHT22;19226;51.600;8.034;2024-02-23T02:17:30;6.80;99.90
32877;DHT22;19226;51.600;8.034;2024-02-23T02:20:17;6.80;99.90
32877;DHT22;19226;51.600;8.034;2024-02-23T02:23:03;6.90;99.90
32877;DHT22;19226;51.600;8.034;2024-02-23T02:25:55;6.90;99.90
32877;DHT22;19226;51.600;8.034;2024-02-23T02:28:39;6.80;99.90
32877;DHT22;19226;51.600;8.034;2024-02-23T02:31:24;6.90;99.90
32877;DHT22;19226;51.600;8.034;2024-02-23T02:34:08;6.90;99.90
32877;DHT22;19226;51.600;8.034;2024-02-23T02:36:57;6.90;99.90
32877;DHT22;19226;51.600;8.034;2024-02-23T02:39:42;6.90;99.90
32877;DHT22;19226;51.600;8.034;2024-02-23T02:42:26;6.90;99.90
32877;DHT22;19226;51.600;8.034;2024-02-23T02:45:13;6.90;99.90
32877;DHT22;19226;51.600;8.034;2024-02-23T02:47:57;6.90;99.90
32877;DHT22;19226;51.600;8.034;2024-02-23T02:50:42;6.90;99.90
32877;DHT22;19226;51.600;8.034;2024-02-23T02:53:26;6.90;99.90
32877;DHT22;19226;51.600;8.034;2024-02-23T02:56:11;6.90;99.90
32877;DHT22;19226;51.600;8.034;2024-02-23T02:58:56;6.90;99.90
32877;DHT22;19226;51.600;8.034;2024-02-23T03:01:40;6.90;99.90
32877;DHT22;19226;51.600;8.034;2024-02-23T03:04:25;6.90;99.90
32877;DHT22;19226;51.600;8.034;2024-02-23T03:07:09;7.00;99.90
32877;DHT22;19226;51.600;8.034;2024-02-23T03:09:54;7.00;99.90
32877;DHT22;19226;51.600;8.034;2024-02-23T03:12:39;7.00;99.90
32877;DHT22;19226;51.600;8.034;2024-02-23T03:15:23;7.00;99.90
32877;DHT22;19226;51.600;8.034;2024-02-23T03:18:08;7.00;99.90
32877;DHT22;19226;51.600;8.034;2024-02-23T03:20:56;7.00;99.90
32877;DHT22;19226;51.600;8.034;2024-02-23T03:23:41;7.00;99.90
32877;DHT22;19226;51.600;8.034;2024-02-23T03:26:26;6.90;99.90
32877;DHT22;19226;51.600;8.034;2024-02-23T03:29:11;6.90;99.90
32877;DHT22;19226;51.600;8.034;2024-02-23T03:31:55;6.90;99.90
32877;DHT22;19226;51.600;8.034;2024-02-23T03:34:40;6.90;99.90
32877;DHT22;19226;51.600;8.034;2024-02-23T03:37:24;6.90;99.90
32877;DHT22;19226;51.600;8.034;2024-02-23T03:40:09;6.90;99.90
32877;DHT22;19226;51.600;8.034;2024-02-23T03:42:56;6.80;99.90
32877;DHT22;19226;51.600;8.034;2024-02-23T03:45:41;6.80;99.90
32877;DHT22;19226;51.600;8.034;2024-02-23T03:48:25;6.80;99.90
32877;DHT22;19226;51.600;8.034;2024-02-23T03:51:10;6.80;99.90
32877;DHT22;19226;51.600;8.034;2024-02-23T03:53:57;6.80;99.90
32877;DHT22;19226;51.600;8.034;2024-02-23T03:56:44;6.80;99.90
32877;DHT22;19226;51.600;8.034;2024-02-23T03:59:29;6.70;99.90
32877;DHT22;19226;51.600;8.034;2024-02-23T04:02:13;6.70;99.90
32877;DHT22;19226;51.600;8.034;2024-02-23T04:04:58;6.70;99.90
32877;DHT22;19226;51.600;8.034;2024-02-23T04:07:43;6.70;99.90
32877;DHT22;19226;51.600;8.034;2024-02-23T04:10:27;6.70;99.90
32877;DHT22;19226;51.600;8.034;2024-02-23T04:13:12;6.70;99.90
32877;DHT22;19226;51.600;8.034;2024-02-23T04:15:58;6.60;99.90
32877;DHT22;19226;51.600;8.034;2024-02-23T04:18:42;6.60;99.90
32877;DHT22;19226;51.600;8.034;2024-02-23T04:21:27;6.60;99.90
32877;DHT22;19226;51.600;8.034;2024-02-23T04:24:12;6.60;99.90
32877;DHT22;19226;51.600;8.034;2024-02-23T04:26:56;6.50;99.90
32877;DHT22;19226;51.600;8.034;2024-02-23T04:29:40;6.50;99.90
32877;DHT22;19226;51.600;8.034;2024-02-23T04:32:25;6.50;99.90
32877;DHT22;19226;51.600;8.034;2024-02-23T04:35:10;6.50;99.90
32877;DHT22;19226;51.600;8.034;2024-02-23T04:37:55;6.50;99.90
32877;DHT22;19226;51.600;8.034;2024-02-23T04:40:39;6.50;99.90
32877;DHT22;19226;51.600;8.034;2024-02-23T04:43:24;6.50;99.90
32877;DHT22;19226;51.600;8.034;2024-02-23T04:46:09;6.50;99.90
32877;DHT22;19226;51.600;8.034;2024-02-23T04:48:53;6.60;99.90
32877;DHT22;19226;51.600;8.034;2024-02-23T04:51:38;6.50;99.90
32877;DHT22;19226;51.600;8.034;2024-02-23T04:54:23;6.50;99.90
32877;DHT22;19226;51.600;8.034;2024-02-23T04:57:07;6.50;99.90
32877;DHT22;19226;51.600;8.034;2024-02-23T04:59:52;6.50;99.90
32877;DHT22;19226;51.600;8.034;2024-02-23T05:02:36;6.40;99.90
32877;DHT22;19226;51.600;8.034;2024-02-23T05:05:21;6.40;99.90
32877;DHT22;19226;51.600;8.034;2024-02-23T05:08:06;6.40;99.90
32877;DHT22;19226;51.600;8.034;2024-02-23T05:10:51;6.40;99.90
32877;DHT22;19226;51.600;8.034;2024-02-23T05:13:35;6.40;99.90
32877;DHT22;19226;51.600;8.034;2024-02-23T05:16:20;6.30;99.90
32877;DHT22;19226;51.600;8.034;2024-02-23T05:19:05;6.30;99.90
32877;DHT22;19226;51.600;8.034;2024-02-23T05:21:50;6.30;99.90
32877;DHT22;19226;51.600;8.034;2024-02-23T05:24:34;6.30;99.90
32877;DHT22;19226;51.600;8.034;2024-02-23T05:27:19;6.30;99.90
32877;DHT22;19226;51.600;8.034;2024-02-23T05:30:03;6.20;99.90
32877;DHT22;19226;51.600;8.034;2024-02-23T05:32:48;6.30;99.90
32877;DHT22;19226;51.600;8.034;2024-02-23T05:35:33;6.20;99.90
32877;DHT22;19226;51.600;8.034;2024-02-23T05:38:21;6.20;99.90
32877;DHT22;19226;51.600;8.034;2024-02-23T05:41:05;6.20;99.90
32877;DHT22;19226;51.600;8.034;2024-02-23T05:43:50;6.20;99.90
32877;DHT22;19226;51.600;8.034;2024-02-23T05:46:35;6.20;99.90
32877;DHT22;19226;51.600;8.034;2024-02-23T05:49:20;6.20;99.90
32877;DHT22;19226;51.600;8.034;2024-02-23T05:52:04;6.20;99.90
32877;DHT22;19226;51.600;8.034;2024-02-23T05:54:49;6.20;99.90
32877;DHT22;19226;51.600;8.034;2024-02-23T05:57:33;6.10;99.90
32877;DHT22;19226;51.600;8.034;2024-02-23T06:00:18;6.10;99.90
32877;DHT22;19226;51.600;8.034;2024-02-23T06:03:03;6.10;99.90
32877;DHT22;19226;51.600;8.034;2024-02-23T06:05:48;6.20;99.90
32877;DHT22;19226;51.600;8.034;2024-02-23T06:08:32;6.10;99.90
32877;DHT22;19226;51.600;8.034;2024-02-23T06:11:16;6.10;99.90
32877;DHT22;19226;51.600;8.034;2024-02-23T06:14:01;6.20;99.90
32877;DHT22;19226;51.600;8.034;2024-02-23T06:16:46;6.20;99.90
32877;DHT22;19226;51.600;8.034;2024-02-23T06:19:30;6.10;99.90
32877;DHT22;19226;51.600;8.034;2024-02-23T06:22:15;6.20;99.90
32877;DHT22;19226;51.600;8.034;2024-02-23T06:25:05;6.20;99.90
32877;DHT22;19226;51.600;8.034;2024-02-23T06:27:50;6.20;99.90
32877;DHT22;19226;51.600;8.034;2024-02-23T06:30:34;6.20;99.90
32877;DHT22;19226;51.600;8.034;2024-02-23T06:33:19;6.20;99.90
32877;DHT22;19226;51.600;8.034;2024-02-23T06:36:04;6.10;99.90
32877;DHT22;19226;51.600;8.034;2024-02-23T06:38:48;6.10;99.90
32877;DHT22;19226;51.600;8.034;2024-02-23T06:41:33;6.10;99.90
32877;DHT22;19226;51.600;8.034;2024-02-23T06:44:18;6.10;99.90
32877;DHT22;19226;51.600;8.034;2024-02-23T06:47:03;6.10;99.90
32877;DHT22;19226;51.600;8.034;2024-02-23T06:49:47;6.00;99.90
32877;DHT22;19226;51.600;8.034;2024-02-23T06:52:32;6.00;99.90
32877;DHT22;19226;51.600;8.034;2024-02-23T06:55:17;6.00;99.90
32877;DHT22;19226;51.600;8.034;2024-02-23T06:58:02;6.00;99.90
32877;DHT22;19226;51.600;8.034;2024-02-23T07:00:48;6.00;99.90
32877;DHT22;19226;51.600;8.034;2024-02-23T07:03:35;6.00;99.90
32877;DHT22;19226;51.600;8.034;2024-02-23T07:06:20;6.00;99.90
32877;DHT22;19226;51.600;8.034;2024-02-23T07:09:04;6.00;99.90
32877;DHT22;19226;51.600;8.034;2024-02-23T07:11:49;6.00;99.90
32877;DHT22;19226;51.600;8.034;2024-02-23T07:14:33;6.00;99.90
32877;DHT22;19226;51.600;8.034;2024-02-23T07:17:18;6.00;99.90
32877;DHT22;19226;51.600;8.034;2024-02-23T07:20:03;6.00;99.90
32877;DHT22;19226;51.600;8.034;2024-02-23T07:22:50;6.00;99.90
32877;DHT22;19226;51.600;8.034;2024-02-23T07:25:34;6.10;99.90
32877;DHT22;19226;51.600;8.034;2024-02-23T07:28:19;6.10;99.90
32877;DHT22;19226;51.600;8.034;2024-02-23T07:31:04;6.10;99.90
32877;DHT22;19226;51.600;8.034;2024-02-23T07:33:48;6.20;99.90
32877;DHT22;19226;51.600;8.034;2024-02-23T07:36:33;6.20;99.90
32877;DHT22;19226;51.600;8.034;2024-02-23T07:39:19;6.20;99.90
32877;DHT22;19226;51.600;8.034;2024-02-23T07:42:03;6.30;99.90
32877;DHT22;19226;51.600;8.034;2024-02-23T07:44:49;6.40;99.90
32877;DHT22;19226;51.600;8.034;2024-02-23T07:47:33;6.40;99.90
32877;DHT22;19226;51.600;8.034;2024-02-23T07:50:18;6.40;99.90
32877;DHT22;19226;51.600;8.034;2024-02-23T07:53:03;6.50;99.90
32877;DHT22;19226;51.600;8.034;2024-02-23T07:55:48;6.50;99.90
32877;DHT22;19226;51.600;8.034;2024-02-23T07:58:33;6.50;99.90
32877;DHT22;19226;51.600;8.034;2024-02-23T08:01:17;6.60;99.90
32877;DHT22;19226;51.600;8.034;2024-02-23T08:04:02;6.60;99.90
32877;DHT22;19226;51.600;8.034;2024-02-23T08:06:48;6.60;99.90
32877;DHT22;19226;51.600;8.034;2024-02-23T08:09:32;6.70;99.90
32877;DHT22;19226;51.600;8.034;2024-02-23T08:12:17;6.70;99.90
32877;DHT22;19226;51.600;8.034;2024-02-23T08:15:02;6.80;99.90
32877;DHT22;19226;51.600;8.034;2024-02-23T08:17:47;6.80;99.90
32877;DHT22;19226;51.600;8.034;2024-02-23T08:20:31;6.90;99.90
32877;DHT22;19226;51.600;8.034;2024-02-23T08:23:16;6.90;99.90
32877;DHT22;19226;51.600;8.034;2024-02-23T08:26:04;7.00;99.90
32877;DHT22;19226;51.600;8.034;2024-02-23T08:28:48;7.00;99.90
32877;DHT22;19226;51.600;8.034;2024-02-23T08:31:32;7.10;99.90
32877;DHT22;19226;51.600;8.034;2024-02-23T08:34:17;7.20;99.90
32877;DHT22;19226;51.600;8.034;2024-02-23T08:37:01;7.20;99.90
32877;DHT22;19226;51.600;8.034;2024-02-23T08:39:46;7.30;99.90
32877;DHT22;19226;51.600;8.034;2024-02-23T08:42:31;7.30;99.90
32877;DHT22;19226;51.600;8.034;2024-02-23T08:45:16;7.40;99.90
32877;DHT22;19226;51.600;8.034;2024-02-23T08:48:00;7.40;99.90
32877;DHT22;19226;51.600;8.034;2024-02-23T08:50:45;7.40;99.90
32877;DHT22;19226;51.600;8.034;2024-02-23T08:53:30;7.40;99.90
32877;DHT22;19226;51.600;8.034;2024-02-23T08:56:15;7.50;99.90
32877;DHT22;19226;51.600;8.034;2024-02-23T08:59:00;7.50;99.90
32877;DHT22;19226;51.600;8.034;2024-02-23T09:01:44;7.60;99.90
32877;DHT22;19226;51.600;8.034;2024-02-23T09:04:30;7.70;99.90
32877;DHT22;19226;51.600;8.034;2024-02-23T09:07:15;7.80;99.90
32877;DHT22;19226;51.600;8.034;2024-02-23T09:09:59;7.90;99.90
32877;DHT22;19226;51.600;8.034;2024-02-23T09:12:44;7.90;99.90
32877;DHT22;19226;51.600;8.034;2024-02-23T09:15:29;8.00;99.90
32877;DHT22;19226;51.600;8.034;2024-02-23T09:18:13;8.10;99.90
32877;DHT22;19226;51.600;8.034;2024-02-23T09:20:59;8.20;99.90
32877;DHT22;19226;51.600;8.034;2024-02-23T09:23:44;8.30;99.90
32877;DHT22;19226;51.600;8.034;2024-02-23T09:26:28;8.50;99.90
32877;DHT22;19226;51.600;8.034;2024-02-23T09:29:13;8.50;99.90
32877;DHT22;19226;51.600;8.034;2024-02-23T09:31:58;8.50;99.90
32877;DHT22;19226;51.600;8.034;2024-02-23T09:34:42;8.50;99.90
32877;DHT22;19226;51.600;8.034;2024-02-23T09:37:27;8.50;99.90
32877;DHT22;19226;51.600;8.034;2024-02-23T09:40:12;8.60;99.90
32877;DHT22;19226;51.600;8.034;2024-02-23T09:42:58;8.60;99.90
32877;DHT22;19226;51.600;8.034;2024-02-23T09:45:45;8.60;99.90
32877;DHT22;19226;51.600;8.034;2024-02-23T09:48:31;8.70;99.90
32877;DHT22;19226;51.600;8.034;2024-02-23T09:51:18;8.70;99.90
32877;DHT22;19226;51.600;8.034;2024-02-23T09:54:04;8.60;99.90
32877;DHT22;19226;51.600;8.034;2024-02-23T09:56:49;8.60;99.90
32877;DHT22;19226;51.600;8.034;2024-02-23T09:59:35;8.70;99.90
32877;DHT22;19226;51.600;8.034;2024-02-23T10:02:19;8.70;99.90
32877;DHT22;19226;51.600;8.034;2024-02-23T10:05:05;8.80;99.90
32877;DHT22;19226;51.600;8.034;2024-02-23T10:07:51;8.80;99.90
32877;DHT22;19226;51.600;8.034;2024-02-23T10:10:38;8.80;99.90
32877;DHT22;19226;51.600;8.034;2024-02-23T10:13:23;8.80;99.90
32877;DHT22;19226;51.600;8.034;2024-02-23T10:16:11;8.90;99.90
32877;DHT22;19226;51.600;8.034;2024-02-23T10:18:57;8.90;99.90
32877;DHT22;19226;51.600;8.034;2024-02-23T10:21:42;9.10;99.90
32877;DHT22;19226;51.600;8.034;2024-02-23T10:24:29;9.20;99.90
32877;DHT22;19226;51.600;8.034;2024-02-23T10:27:14;9.30;99.90
32877;DHT22;19226;51.600;8.034;2024-02-23T10:29:58;9.40;99.90
32877;DHT22;19226;51.600;8.034;2024-02-23T10:32:43;9.40;99.90
32877;DHT22;19226;51.600;8.034;2024-02-23T10:35:31;9.50;99.90
32877;DHT22;19226;51.600;8.034;2024-02-23T10:38:17;9.60;99.90
32877;DHT22;19226;51.600;8.034;2024-02-23T10:41:05;9.60;99.90
32877;DHT22;19226;51.600;8.034;2024-02-23T10:43:55;9.70;99.90
32877;DHT22;19226;51.600;8.034;2024-02-23T10:46:40;9.70;99.90
32877;DHT22;19226;51.600;8.034;2024-02-23T10:49:26;9.80;99.90
32877;DHT22;19226;51.600;8.034;2024-02-23T10:52:11;9.90;99.90
32877;DHT22;19226;51.600;8.034;2024-02-23T10:54:57;9.90;99.90
32877;DHT22;19226;51.600;8.034;2024-02-23T10:57:45;10.00;99.90
32877;DHT22;19226;51.600;8.034;2024-02-23T11:00:32;10.10;99.90
32877;DHT22;19226;51.600;8.034;2024-02-23T11:03:18;10.10;99.90
32877;DHT22;19226;51.600;8.034;2024-02-23T11:06:05;10.10;99.90
32877;DHT22;19226;51.600;8.034;2024-02-23T11:08:50;10.10;99.90
32877;DHT22;19226;51.600;8.034;2024-02-23T11:11:36;10.10;99.90
32877;DHT22;19226;51.600;8.034;2024-02-23T11:14:35;10.10;99.90
32877;DHT22;19226;51.600;8.034;2024-02-23T11:17:20;10.20;99.90
32877;DHT22;19226;51.600;8.034;2024-02-23T11:20:05;10.30;99.90
32877;DHT22;19226;51.600;8.034;2024-02-23T11:22:54;10.40;99.90
32877;DHT22;19226;51.600;8.034;2024-02-23T11:25:39;10.40;99.90
32877;DHT22;19226;51.600;8.034;2024-02-23T11:28:26;10.40;99.90
32877;DHT22;19226;51.600;8.034;2024-02-23T11:31:15;10.30;99.90
32877;DHT22;19226;51.600;8.034;2024-02-23T11:34:00;10.30;99.90
32877;DHT22;19226;51.600;8.034;2024-02-23T11:36:50;10.40;99.90
32877;DHT22;19226;51.600;8.034;2024-02-23T11:39:39;10.50;99.90
32877;DHT22;19226;51.600;8.034;2024-02-23T11:42:24;10.50;99.90
32877;DHT22;19226;51.600;8.034;2024-02-23T11:45:10;10.50;99.90
32877;DHT22;19226;51.600;8.034;2024-02-23T11:47:55;10.40;99.90
32877;DHT22;19226;51.600;8.034;2024-02-23T11:50:40;10.50;99.90
32877;DHT22;19226;51.600;8.034;2024-02-23T11:53:25;10.40;99.90
32877;DHT22;19226;51.600;8.034;2024-02-23T11:56:11;10.40;99.90
32877;DHT22;19226;51.600;8.034;2024-02-23T11:58:58;10.40;99.90
32877;DHT22;19226;51.600;8.034;2024-02-23T12:01:43;10.50;99.90
32877;DHT22;19226;51.600;8.034;2024-02-23T12:04:28;10.50;99.90
32877;DHT22;19226;51.600;8.034;2024-02-23T12:07:13;10.50;99.90
32877;DHT22;19226;51.600;8.034;2024-02-23T12:10:00;10.60;99.90
32877;DHT22;19226;51.600;8.034;2024-02-23T12:12:44;10.60;99.90
32877;DHT22;19226;51.600;8.034;2024-02-23T12:15:30;10.60;99.90
32877;DHT22;19226;51.600;8.034;2024-02-23T12:18:15;10.60;99.90
32877;DHT22;19226;51.600;8.034;2024-02-23T12:21:00;10.60;99.90
32877;DHT22;19226;51.600;8.034;2024-02-23T12:23:49;10.60;99.90
32877;DHT22;19226;51.600;8.034;2024-02-23T12:26:34;10.70;99.90
32877;DHT22;19226;51.600;8.034;2024-02-23T12:29:19;10.80;99.90
32877;DHT22;19226;51.600;8.034;2024-02-23T12:32:07;10.90;99.90
32877;DHT22;19226;51.600;8.034;2024-02-23T12:34:52;10.90;99.90
32877;DHT22;19226;51.600;8.034;2024-02-23T12:37:37;11.00;99.90
32877;DHT22;19226;51.600;8.034;2024-02-23T12:40:21;11.10;99.90
32877;DHT22;19226;51.600;8.034;2024-02-23T12:43:06;11.10;99.90
32877;DHT22;19226;51.600;8.034;2024-02-23T12:45:54;11.10;99.90
32877;DHT22;19226;51.600;8.034;2024-02-23T12:48:39;11.00;99.90
32877;DHT22;19226;51.600;8.034;2024-02-23T12:51:25;11.00;99.90
32877;DHT22;19226;51.600;8.034;2024-02-23T12:54:11;11.00;99.90
32877;DHT22;19226;51.600;8.034;2024-02-23T12:56:56;11.00;99.90
32877;DHT22;19226;51.600;8.034;2024-02-23T12:59:41;11.00;99.90
32877;DHT22;19226;51.600;8.034;2024-02-23T13:02:26;11.00;99.90
32877;DHT22;19226;51.600;8.034;2024-02-23T13:05:10;10.90;99.90
32877;DHT22;19226;51.600;8.034;2024-02-23T13:07:55;10.90;99.90
32877;DHT22;19226;51.600;8.034;2024-02-23T13:10:40;10.90;99.90
32877;DHT22;19226;51.600;8.034;2024-02-23T13:13:25;10.80;99.90
32877;DHT22;19226;51.600;8.034;2024-02-23T13:16:10;10.80;99.90
32877;DHT22;19226;51.600;8.034;2024-02-23T13:18:55;10.80;99.90
32877;DHT22;19226;51.600;8.034;2024-02-23T13:21:39;10.70;99.90
32877;DHT22;19226;51.600;8.034;2024-02-23T13:24:24;10.70;99.90
32877;DHT22;19226;51.600;8.034;2024-02-23T13:27:08;10.70;99.90
32877;DHT22;19226;51.600;8.034;2024-02-23T13:29:53;10.70;99.90
32877;DHT22;19226;51.600;8.034;2024-02-23T13:32:37;10.60;99.90
32877;DHT22;19226;51.600;8.034;2024-02-23T13:35:22;10.60;99.90
32877;DHT22;19226;51.600;8.034;2024-02-23T13:38:07;10.60;99.90
32877;DHT22;19226;51.600;8.034;2024-02-23T13:40:53;10.60;99.90
32877;DHT22;19226;51.600;8.034;2024-02-23T13:43:37;10.60;99.90
32877;DHT22;19226;51.600;8.034;2024-02-23T13:46:23;10.60;99.90
32877;DHT22;19226;51.600;8.034;2024-02-23T13:49:07;10.60;99.90
32877;DHT22;19226;51.600;8.034;2024-02-23T13:51:53;10.50;99.90
32877;DHT22;19226;51.600;8.034;2024-02-23T13:54:38;10.50;99.90
32877;DHT22;19226;51.600;8.034;2024-02-23T13:57:23;10.50;99.90
32877;DHT22;19226;51.600;8.034;2024-02-23T14:00:07;10.50;99.90
32877;DHT22;19226;51.600;8.034;2024-02-23T14:02:57;10.40;99.90
32877;DHT22;19226;51.600;8.034;2024-02-23T14:05:41;10.40;99.90
32877;DHT22;19226;51.600;8.034;2024-02-23T14:08:28;10.30;99.90
32877;DHT22;19226;51.600;8.034;2024-02-23T14:11:13;10.30;99.90
32877;DHT22;19226;51.600;8.034;2024-02-23T14:13:58;10.30;99.90
32877;DHT22;19226;51.600;8.034;2024-02-23T14:16:42;10.30;99.90
32877;DHT22;19226;51.600;8.034;2024-02-23T14:19:27;10.30;99.90
32877;DHT22;19226;51.600;8.034;2024-02-23T14:22:12;10.20;99.90
32877;DHT22;19226;51.600;8.034;2024-02-23T14:24:56;10.20;99.90
32877;DHT22;19226;51.600;8.034;2024-02-23T14:27:41;10.20;99.90
32877;DHT22;19226;51.600;8.034;2024-02-23T14:30:25;10.30;99.90
32877;DHT22;19226;51.600;8.034;2024-02-23T14:33:10;10.30;99.90
32877;DHT22;19226;51.600;8.034;2024-02-23T14:35:54;10.30;99.90
32877;DHT22;19226;51.600;8.034;2024-02-23T14:38:40;10.30;99.90
32877;DHT22;19226;51.600;8.034;2024-02-23T14:41:24;10.30;99.90
32877;DHT22;19226;51.600;8.034;2024-02-23T14:44:09;10.20;99.90
32877;DHT22;19226;51.600;8.034;2024-02-23T14:46:53;10.20;99.90
32877;DHT22;19226;51.600;8.034;2024-02-23T14:49:38;10.20;99.90
32877;DHT22;19226;51.600;8.034;2024-02-23T14:52:23;10.20;99.90
32877;DHT22;19226;51.600;8.034;2024-02-23T14:55:07;10.20;99.90
32877;DHT22;19226;51.600;8.034;2024-02-23T14:57:55;10.20;99.90
32877;DHT22;19226;51.600;8.034;2024-02-23T15:00:41;10.20;99.90
32877;DHT22;19226;51.600;8.034;2024-02-23T15:03:26;10.10;99.90
32877;DHT22;19226;51.600;8.034;2024-02-23T15:06:10;10.10;99.90
32877;DHT22;19226;51.600;8.034;2024-02-23T15:08:55;10.00;99.90
32877;DHT22;19226;51.600;8.034;2024-02-23T15:11:39;10.00;99.90
32877;DHT22;19226;51.600;8.034;2024-02-23T15:14:24;9.90;99.90
32877;DHT22;19226;51.600;8.034;2024-02-23T15:17:09;9.80;99.90
32877;DHT22;19226;51.600;8.034;2024-02-23T15:19:53;9.90;99.90
32877;DHT22;19226;51.600;8.034;2024-02-23T15:22:38;9.90;99.90
32877;DHT22;19226;51.600;8.034;2024-02-23T15:25:26;9.90;99.90
32877;DHT22;19226;51.600;8.034;2024-02-23T15:28:11;9.90;99.90
32877;DHT22;19226;51.600;8.034;2024-02-23T15:30:55;9.90;99.90
32877;DHT22;19226;51.600;8.034;2024-02-23T15:33:40;9.90;99.90
32877;DHT22;19226;51.600;8.034;2024-02-23T15:36:25;9.90;99.90
32877;DHT22;19226;51.600;8.034;2024-02-23T15:39:09;9.80;99.90
32877;DHT22;19226;51.600;8.034;2024-02-23T15:41:56;9.70;99.90
32877;DHT22;19226;51.600;8.034;2024-02-23T15:44:40;9.70;99.90
32877;DHT22;19226;51.600;8.034;2024-02-23T15:47:25;9.70;99.90
32877;DHT22;19226;51.600;8.034;2024-02-23T15:50:10;9.70;99.90
32877;DHT22;19226;51.600;8.034;2024-02-23T15:52:55;9.60;99.90
32877;DHT22;19226;51.600;8.034;2024-02-23T15:55:40;9.60;99.90
32877;DHT22;19226;51.600;8.034;2024-02-23T15:58:24;9.60;99.90
32877;DHT22;19226;51.600;8.034;2024-02-23T16:01:09;9.60;99.90
32877;DHT22;19226;51.600;8.034;2024-02-23T16:03:53;9.50;99.90
32877;DHT22;19226;51.600;8.034;2024-02-23T16:06:38;9.40;99.90
32877;DHT22;19226;51.600;8.034;2024-02-23T16:09:22;9.30;99.90
32877;DHT22;19226;51.600;8.034;2024-02-23T16:12:07;9.30;99.90
32877;DHT22;19226;51.600;8.034;2024-02-23T16:14:51;9.20;99.90
32877;DHT22;19226;51.600;8.034;2024-02-23T16:17:36;9.20;99.90
32877;DHT22;19226;51.600;8.034;2024-02-23T16:20:21;9.10;99.90
32877;DHT22;19226;51.600;8.034;2024-02-23T16:23:05;9.10;99.90
32877;DHT22;19226;51.600;8.034;2024-02-23T16:25:50;9.00;99.90
32877;DHT22;19226;51.600;8.034;2024-02-23T16:28:34;9.00;99.90
32877;DHT22;19226;51.600;8.034;2024-02-23T16:31:19;9.00;99.90
32877;DHT22;19226;51.600;8.034;2024-02-23T16:34:04;9.00;99.90
32877;DHT22;19226;51.600;8.034;2024-02-23T16:36:49;8.90;99.90
32877;DHT22;19226;51.600;8.034;2024-02-23T16:39:33;8.90;99.90
32877;DHT22;19226;51.600;8.034;2024-02-23T16:42:18;8.90;99.90
32877;DHT22;19226;51.600;8.034;2024-02-23T16:45:03;9.00;99.90
32877;DHT22;19226;51.600;8.034;2024-02-23T16:47:48;9.00;99.90
32877;DHT22;19226;51.600;8.034;2024-02-23T16:50:32;9.00;99.90
32877;DHT22;19226;51.600;8.034;2024-02-23T16:53:18;8.90;99.90
32877;DHT22;19226;51.600;8.034;2024-02-23T16:56:02;8.90;99.90
32877;DHT22;19226;51.600;8.034;2024-02-23T16:58:47;8.90;99.90
32877;DHT22;19226;51.600;8.034;2024-02-23T17:01:31;8.90;99.90
32877;DHT22;19226;51.600;8.034;2024-02-23T17:04:16;8.90;99.90
32877;DHT22;19226;51.600;8.034;2024-02-23T17:07:00;8.80;99.90
32877;DHT22;19226;51.600;8.034;2024-02-23T17:09:45;8.90;99.90
32877;DHT22;19226;51.600;8.034;2024-02-23T17:12:33;8.80;99.90
32877;DHT22;19226;51.600;8.034;2024-02-23T17:15:18;8.80;99.90
32877;DHT22;19226;51.600;8.034;2024-02-23T17:18:03;8.70;99.90
32877;DHT22;19226;51.600;8.034;2024-02-23T17:20:49;8.70;99.90
32877;DHT22;19226;51.600;8.034;2024-02-23T17:23:34;8.70;99.90
32877;DHT22;19226;51.600;8.034;2024-02-23T17:26:18;8.60;99.90
32877;DHT22;19226;51.600;8.034;2024-02-23T17:29:03;8.60;99.90
32877;DHT22;19226;51.600;8.034;2024-02-23T17:31:47;8.50;99.90
32877;DHT22;19226;51.600;8.034;2024-02-23T17:34:32;8.50;99.90